sensor_id;sensor_type;location;lat;lon;timestamp;P1;durP1;ratioP1;P2;durP2;ratioP2
29380;SDS011;16364;52.490;13.326;2022-12-07T00:01:10;14.77;;;8.03;;
29380;SDS011;16364;52.490;13.326;2022-12-07T00:03:36;15.73;;;8.90;;
29380;SDS011;16364;52.490;13.326;2022-12-07T00:06:02;17.03;;;8.40;;
29380;SDS011;16364;52.490;13.326;2022-12-07T00:08:28;19.83;;;8.97;;
29380;SDS011;16364;52.490;13.326;2022-12-07T00:10:54;16.10;;;7.87;;
29380;SDS011;16364;52.490;13.326;2022-12-07T00:13:19;17.70;;;9.20;;
29380;SDS011;16364;52.490;13.326;2022-12-07T00:15:45;18.43;;;9.00;;
29380;SDS011;16364;52.490;13.326;2022-12-07T00:18:10;15.37;;;8.63;;
29380;SDS011;16364;52.490;13.326;2022-12-07T00:20:35;19.80;;;10.70;;
29380;SDS011;16364;52.490;13.326;2022-12-07T00:23:00;16.93;;;9.77;;
29380;SDS011;16364;52.490;13.326;2022-12-07T00:25:26;15.77;;;7.83;;
29380;SDS011;16364;52.490;13.326;2022-12-07T00:27:54;18.80;;;7.80;;
29380;SDS011;16364;52.490;13.326;2022-12-07T00:30:22;16.40;;;8.73;;
29380;SDS011;16364;52.490;13.326;2022-12-07T00:32:48;16.23;;;7.47;;
29380;SDS011;16364;52.490;13.326;2022-12-07T00:35:13;13.27;;;7.87;;
29380;SDS011;16364;52.490;13.326;2022-12-07T00:37:38;20.50;;;8.80;;
29380;SDS011;16364;52.490;13.326;2022-12-07T00:40:04;15.40;;;9.00;;
29380;SDS011;16364;52.490;13.326;2022-12-07T00:42:29;15.37;;;8.63;;
29380;SDS011;16364;52.490;13.326;2022-12-07T00:44:54;13.27;;;8.00;;
29380;SDS011;16364;52.490;13.326;2022-12-07T00:47:20;9.50;;;7.23;;
29380;SDS011;16364;52.490;13.326;2022-12-07T00:49:45;14.87;;;7.60;;
29380;SDS011;16364;52.490;13.326;2022-12-07T00:52:10;13.43;;;9.17;;
29380;SDS011;16364;52.490;13.326;2022-12-07T00:54:35;10.50;;;7.13;;
29380;SDS011;16364;52.490;13.326;2022-12-07T00:57:01;12.67;;;8.77;;
29380;SDS011;16364;52.490;13.326;2022-12-07T00:59:26;11.53;;;7.10;;
29380;SDS011;16364;52.490;13.326;2022-12-07T01:01:51;12.97;;;6.60;;
29380;SDS011;16364;52.490;13.326;2022-12-07T01:04:16;12.20;;;7.90;;
29380;SDS011;16364;52.490;13.326;2022-12-07T01:06:41;9.13;;;6.73;;
29380;SDS011;16364;52.490;13.326;2022-12-07T01:09:07;9.33;;;6.53;;
29380;SDS011;16364;52.490;13.326;2022-12-07T01:11:32;11.87;;;7.13;;
29380;SDS011;16364;52.490;13.326;2022-12-07T01:13:58;8.47;;;5.67;;
29380;SDS011;16364;52.490;13.326;2022-12-07T01:16:26;11.43;;;6.80;;
29380;SDS011;16364;52.490;13.326;2022-12-07T01:18:52;13.10;;;6.50;;
29380;SDS011;16364;52.490;13.326;2022-12-07T01:21:21;10.73;;;6.43;;
29380;SDS011;16364;52.490;13.326;2022-12-07T01:23:47;8.53;;;7.23;;
29380;SDS011;16364;52.490;13.326;2022-12-07T01:26:14;9.50;;;7.03;;
29380;SDS011;16364;52.490;13.326;2022-12-07T01:28:39;11.43;;;6.87;;
29380;SDS011;16364;52.490;13.326;2022-12-07T01:31:05;8.20;;;5.60;;
29380;SDS011;16364;52.490;13.326;2022-12-07T01:33:32;8.67;;;5.40;;
29380;SDS011;16364;52.490;13.326;2022-12-07T01:36:05;7.80;;;5.43;;
29380;SDS011;16364;52.490;13.326;2022-12-07T01:38:31;9.73;;;5.33;;
29380;SDS011;16364;52.490;13.326;2022-12-07T01:40:56;8.33;;;5.67;;
29380;SDS011;16364;52.490;13.326;2022-12-07T01:43:22;15.03;;;6.77;;
29380;SDS011;16364;52.490;13.326;2022-12-07T01:45:48;7.67;;;5.73;;
29380;SDS011;16364;52.490;13.326;2022-12-07T01:48:14;8.80;;;4.90;;
29380;SDS011;16364;52.490;13.326;2022-12-07T01:50:40;11.30;;;5.70;;
29380;SDS011;16364;52.490;13.326;2022-12-07T01:53:06;10.60;;;6.30;;
29380;SDS011;16364;52.490;13.326;2022-12-07T01:55:34;7.33;;;5.40;;
29380;SDS011;16364;52.490;13.326;2022-12-07T01:58:02;8.63;;;5.37;;
29380;SDS011;16364;52.490;13.326;2022-12-07T02:00:27;10.73;;;5.27;;
29380;SDS011;16364;52.490;13.326;2022-12-07T02:05:30;8.33;;;5.33;;
29380;SDS011;16364;52.490;13.326;2022-12-07T02:07:56;8.20;;;5.27;;
29380;SDS011;16364;52.490;13.326;2022-12-07T02:10:26;8.43;;;5.80;;
29380;SDS011;16364;52.490;13.326;2022-12-07T02:12:56;9.33;;;5.93;;
29380;SDS011;16364;52.490;13.326;2022-12-07T02:15:23;6.40;;;5.03;;
29380;SDS011;16364;52.490;13.326;2022-12-07T02:18:01;6.43;;;4.90;;
29380;SDS011;16364;52.490;13.326;2022-12-07T02:28:07;8.50;;;5.57;;
29380;SDS011;16364;52.490;13.326;2022-12-07T02:30:34;7.97;;;5.97;;
29380;SDS011;16364;52.490;13.326;2022-12-07T02:33:04;9.50;;;5.50;;
29380;SDS011;16364;52.490;13.326;2022-12-07T02:35:32;10.33;;;6.63;;
29380;SDS011;16364;52.490;13.326;2022-12-07T02:40:38;8.37;;;5.80;;
29380;SDS011;16364;52.490;13.326;2022-12-07T02:43:16;9.43;;;6.17;;
29380;SDS011;16364;52.490;13.326;2022-12-07T02:45:43;9.13;;;6.10;;
29380;SDS011;16364;52.490;13.326;2022-12-07T02:48:09;8.87;;;6.60;;
29380;SDS011;16364;52.490;13.326;2022-12-07T02:50:35;8.60;;;6.10;;
29380;SDS011;16364;52.490;13.326;2022-12-07T02:53:00;10.67;;;5.90;;
29380;SDS011;16364;52.490;13.326;2022-12-07T02:55:35;8.07;;;5.20;;
29380;SDS011;16364;52.490;13.326;2022-12-07T03:00:35;9.30;;;5.40;;
29380;SDS011;16364;52.490;13.326;2022-12-07T03:03:04;8.80;;;6.20;;
29380;SDS011;16364;52.490;13.326;2022-12-07T03:13:12;10.53;;;7.50;;
29380;SDS011;16364;52.490;13.326;2022-12-07T03:15:45;10.50;;;6.30;;
29380;SDS011;16364;52.490;13.326;2022-12-07T03:18:11;12.63;;;7.83;;
29380;SDS011;16364;52.490;13.326;2022-12-07T03:20:37;11.47;;;7.07;;
29380;SDS011;16364;52.490;13.326;2022-12-07T03:23:05;12.23;;;7.47;;
29380;SDS011;16364;52.490;13.326;2022-12-07T03:25:34;11.43;;;6.57;;
29380;SDS011;16364;52.490;13.326;2022-12-07T03:28:04;8.97;;;6.17;;
29380;SDS011;16364;52.490;13.326;2022-12-07T03:30:35;14.63;;;7.47;;
29380;SDS011;16364;52.490;13.326;2022-12-07T03:33:04;16.27;;;7.00;;
29380;SDS011;16364;52.490;13.326;2022-12-07T03:42:50;10.80;;;7.37;;
29380;SDS011;16364;52.490;13.326;2022-12-07T03:45:17;11.77;;;6.50;;
29380;SDS011;16364;52.490;13.326;2022-12-07T03:47:45;16.10;;;8.53;;
29380;SDS011;16364;52.490;13.326;2022-12-07T03:50:18;15.83;;;8.10;;
29380;SDS011;16364;52.490;13.326;2022-12-07T03:52:53;11.60;;;7.73;;
29380;SDS011;16364;52.490;13.326;2022-12-07T03:55:25;14.00;;;7.90;;
29380;SDS011;16364;52.490;13.326;2022-12-07T03:57:51;15.50;;;7.97;;
29380;SDS011;16364;52.490;13.326;2022-12-07T04:00:18;15.37;;;8.30;;
29380;SDS011;16364;52.490;13.326;2022-12-07T04:02:43;13.83;;;7.30;;
29380;SDS011;16364;52.490;13.326;2022-12-07T04:05:09;17.80;;;9.27;;
29380;SDS011;16364;52.490;13.326;2022-12-07T04:07:34;14.90;;;8.90;;
29380;SDS011;16364;52.490;13.326;2022-12-07T04:09:59;14.40;;;7.97;;
29380;SDS011;16364;52.490;13.326;2022-12-07T04:12:25;17.60;;;9.00;;
29380;SDS011;16364;52.490;13.326;2022-12-07T04:14:50;16.23;;;8.10;;
29380;SDS011;16364;52.490;13.326;2022-12-07T04:17:15;17.87;;;8.63;;
29380;SDS011;16364;52.490;13.326;2022-12-07T04:19:40;17.53;;;8.47;;
29380;SDS011;16364;52.490;13.326;2022-12-07T04:22:06;17.63;;;8.33;;
29380;SDS011;16364;52.490;13.326;2022-12-07T04:24:31;16.80;;;9.50;;
29380;SDS011;16364;52.490;13.326;2022-12-07T04:26:57;16.33;;;9.03;;
29380;SDS011;16364;52.490;13.326;2022-12-07T04:29:22;21.30;;;10.50;;
29380;SDS011;16364;52.490;13.326;2022-12-07T04:31:48;20.70;;;9.30;;
29380;SDS011;16364;52.490;13.326;2022-12-07T04:34:13;18.20;;;9.37;;
29380;SDS011;16364;52.490;13.326;2022-12-07T04:36:39;24.33;;;11.63;;
29380;SDS011;16364;52.490;13.326;2022-12-07T04:39:06;25.17;;;12.30;;
29380;SDS011;16364;52.490;13.326;2022-12-07T04:41:31;22.40;;;10.70;;
29380;SDS011;16364;52.490;13.326;2022-12-07T04:43:57;25.70;;;11.73;;
29380;SDS011;16364;52.490;13.326;2022-12-07T04:46:23;21.50;;;11.00;;
29380;SDS011;16364;52.490;13.326;2022-12-07T04:48:48;30.03;;;12.47;;
29380;SDS011;16364;52.490;13.326;2022-12-07T04:51:15;31.50;;;15.00;;
29380;SDS011;16364;52.490;13.326;2022-12-07T04:53:43;28.70;;;13.40;;
29380;SDS011;16364;52.490;13.326;2022-12-07T04:56:08;28.30;;;13.27;;
29380;SDS011;16364;52.490;13.326;2022-12-07T04:58:33;26.83;;;13.90;;
29380;SDS011;16364;52.490;13.326;2022-12-07T05:00:59;30.60;;;14.30;;
29380;SDS011;16364;52.490;13.326;2022-12-07T05:03:24;33.57;;;14.60;;
29380;SDS011;16364;52.490;13.326;2022-12-07T05:05:49;30.97;;;15.70;;
29380;SDS011;16364;52.490;13.326;2022-12-07T05:08:14;36.87;;;16.40;;
29380;SDS011;16364;52.490;13.326;2022-12-07T05:10:39;31.10;;;16.00;;
29380;SDS011;16364;52.490;13.326;2022-12-07T05:13:05;31.70;;;15.20;;
29380;SDS011;16364;52.490;13.326;2022-12-07T05:15:30;37.97;;;16.23;;
29380;SDS011;16364;52.490;13.326;2022-12-07T05:17:55;34.73;;;15.07;;
29380;SDS011;16364;52.490;13.326;2022-12-07T05:20:20;33.97;;;16.80;;
29380;SDS011;16364;52.490;13.326;2022-12-07T05:22:45;42.33;;;17.43;;
29380;SDS011;16364;52.490;13.326;2022-12-07T05:25:11;38.10;;;15.27;;
29380;SDS011;16364;52.490;13.326;2022-12-07T05:27:36;43.50;;;17.87;;
29380;SDS011;16364;52.490;13.326;2022-12-07T05:30:01;36.27;;;16.93;;
29380;SDS011;16364;52.490;13.326;2022-12-07T05:32:27;31.23;;;15.60;;
29380;SDS011;16364;52.490;13.326;2022-12-07T05:34:52;36.87;;;16.93;;
29380;SDS011;16364;52.490;13.326;2022-12-07T05:37:19;37.87;;;17.30;;
29380;SDS011;16364;52.490;13.326;2022-12-07T05:39:44;42.73;;;19.10;;
29380;SDS011;16364;52.490;13.326;2022-12-07T05:42:10;36.60;;;17.90;;
29380;SDS011;16364;52.490;13.326;2022-12-07T05:44:42;41.67;;;17.50;;
29380;SDS011;16364;52.490;13.326;2022-12-07T05:47:08;44.83;;;18.90;;
29380;SDS011;16364;52.490;13.326;2022-12-07T05:49:33;37.60;;;16.27;;
29380;SDS011;16364;52.490;13.326;2022-12-07T05:51:58;46.50;;;19.00;;
29380;SDS011;16364;52.490;13.326;2022-12-07T05:54:24;43.87;;;19.50;;
29380;SDS011;16364;52.490;13.326;2022-12-07T05:56:49;44.00;;;17.60;;
29380;SDS011;16364;52.490;13.326;2022-12-07T05:59:14;53.20;;;18.63;;
29380;SDS011;16364;52.490;13.326;2022-12-07T06:01:49;38.73;;;17.40;;
29380;SDS011;16364;52.490;13.326;2022-12-07T06:04:15;44.77;;;18.47;;
29380;SDS011;16364;52.490;13.326;2022-12-07T06:06:41;49.10;;;19.57;;
29380;SDS011;16364;52.490;13.326;2022-12-07T06:09:06;56.60;;;21.67;;
29380;SDS011;16364;52.490;13.326;2022-12-07T06:11:31;50.00;;;23.60;;
29380;SDS011;16364;52.490;13.326;2022-12-07T06:14:15;49.97;;;19.97;;
29380;SDS011;16364;52.490;13.326;2022-12-07T06:16:40;43.73;;;20.83;;
29380;SDS011;16364;52.490;13.326;2022-12-07T06:19:05;51.10;;;20.93;;
29380;SDS011;16364;52.490;13.326;2022-12-07T06:21:31;45.30;;;19.57;;
29380;SDS011;16364;52.490;13.326;2022-12-07T06:23:56;59.23;;;23.70;;
29380;SDS011;16364;52.490;13.326;2022-12-07T06:26:21;45.93;;;23.63;;
29380;SDS011;16364;52.490;13.326;2022-12-07T06:28:46;43.40;;;22.20;;
29380;SDS011;16364;52.490;13.326;2022-12-07T06:31:11;50.73;;;21.07;;
29380;SDS011;16364;52.490;13.326;2022-12-07T06:33:37;49.33;;;22.67;;
29380;SDS011;16364;52.490;13.326;2022-12-07T06:36:02;45.23;;;22.70;;
29380;SDS011;16364;52.490;13.326;2022-12-07T06:38:27;41.67;;;21.03;;
29380;SDS011;16364;52.490;13.326;2022-12-07T06:40:53;50.00;;;21.30;;
29380;SDS011;16364;52.490;13.326;2022-12-07T06:43:18;40.00;;;21.07;;
29380;SDS011;16364;52.490;13.326;2022-12-07T06:45:43;43.63;;;21.57;;
29380;SDS011;16364;52.490;13.326;2022-12-07T06:48:08;41.47;;;19.60;;
29380;SDS011;16364;52.490;13.326;2022-12-07T06:50:33;47.30;;;20.70;;
29380;SDS011;16364;52.490;13.326;2022-12-07T06:52:59;43.40;;;19.43;;
29380;SDS011;16364;52.490;13.326;2022-12-07T06:55:24;44.47;;;18.07;;
29380;SDS011;16364;52.490;13.326;2022-12-07T06:57:49;47.03;;;20.60;;
29380;SDS011;16364;52.490;13.326;2022-12-07T07:00:14;49.10;;;20.57;;
29380;SDS011;16364;52.490;13.326;2022-12-07T07:02:40;48.60;;;21.17;;
29380;SDS011;16364;52.490;13.326;2022-12-07T07:05:05;46.27;;;20.43;;
29380;SDS011;16364;52.490;13.326;2022-12-07T07:07:30;45.03;;;20.43;;
29380;SDS011;16364;52.490;13.326;2022-12-07T07:09:56;50.03;;;21.33;;
29380;SDS011;16364;52.490;13.326;2022-12-07T07:12:21;45.37;;;20.50;;
29380;SDS011;16364;52.490;13.326;2022-12-07T07:14:46;45.03;;;20.33;;
29380;SDS011;16364;52.490;13.326;2022-12-07T07:17:12;44.77;;;20.20;;
29380;SDS011;16364;52.490;13.326;2022-12-07T07:19:37;38.83;;;21.23;;
29380;SDS011;16364;52.490;13.326;2022-12-07T07:22:03;45.67;;;21.70;;
29380;SDS011;16364;52.490;13.326;2022-12-07T07:24:28;53.50;;;20.97;;
29380;SDS011;16364;52.490;13.326;2022-12-07T07:26:53;41.10;;;19.70;;
29380;SDS011;16364;52.490;13.326;2022-12-07T07:29:19;35.80;;;18.50;;
29380;SDS011;16364;52.490;13.326;2022-12-07T07:31:44;42.53;;;19.67;;
29380;SDS011;16364;52.490;13.326;2022-12-07T07:34:09;42.60;;;18.83;;
29380;SDS011;16364;52.490;13.326;2022-12-07T07:36:34;41.87;;;17.50;;
29380;SDS011;16364;52.490;13.326;2022-12-07T07:39:00;39.20;;;17.80;;
29380;SDS011;16364;52.490;13.326;2022-12-07T07:41:25;34.93;;;16.00;;
29380;SDS011;16364;52.490;13.326;2022-12-07T07:43:50;36.47;;;17.80;;
29380;SDS011;16364;52.490;13.326;2022-12-07T07:46:15;30.50;;;15.60;;
29380;SDS011;16364;52.490;13.326;2022-12-07T07:48:41;32.70;;;16.27;;
29380;SDS011;16364;52.490;13.326;2022-12-07T07:51:06;35.23;;;15.97;;
29380;SDS011;16364;52.490;13.326;2022-12-07T07:53:32;32.57;;;15.73;;
29380;SDS011;16364;52.490;13.326;2022-12-07T07:55:57;28.70;;;14.33;;
29380;SDS011;16364;52.490;13.326;2022-12-07T07:58:23;27.50;;;13.40;;
29380;SDS011;16364;52.490;13.326;2022-12-07T08:00:48;24.83;;;11.87;;
29380;SDS011;16364;52.490;13.326;2022-12-07T08:03:13;22.07;;;11.10;;
29380;SDS011;16364;52.490;13.326;2022-12-07T08:05:38;19.77;;;11.20;;
29380;SDS011;16364;52.490;13.326;2022-12-07T08:08:04;17.47;;;10.10;;
29380;SDS011;16364;52.490;13.326;2022-12-07T08:10:29;17.83;;;10.83;;
29380;SDS011;16364;52.490;13.326;2022-12-07T08:12:54;17.23;;;8.73;;
29380;SDS011;16364;52.490;13.326;2022-12-07T08:15:38;19.00;;;8.23;;
29380;SDS011;16364;52.490;13.326;2022-12-07T08:18:04;20.27;;;8.10;;
29380;SDS011;16364;52.490;13.326;2022-12-07T08:20:30;12.47;;;7.00;;
29380;SDS011;16364;52.490;13.326;2022-12-07T08:22:55;12.03;;;6.97;;
29380;SDS011;16364;52.490;13.326;2022-12-07T08:25:20;9.47;;;7.00;;
29380;SDS011;16364;52.490;13.326;2022-12-07T08:27:47;8.67;;;5.13;;
29380;SDS011;16364;52.490;13.326;2022-12-07T08:30:13;6.60;;;4.80;;
29380;SDS011;16364;52.490;13.326;2022-12-07T08:32:38;7.23;;;5.17;;
29380;SDS011;16364;52.490;13.326;2022-12-07T08:35:04;6.57;;;4.20;;
29380;SDS011;16364;52.490;13.326;2022-12-07T08:37:29;6.40;;;3.40;;
29380;SDS011;16364;52.490;13.326;2022-12-07T08:39:55;4.90;;;3.30;;
29380;SDS011;16364;52.490;13.326;2022-12-07T08:42:20;4.70;;;2.70;;
29380;SDS011;16364;52.490;13.326;2022-12-07T08:44:48;2.90;;;2.30;;
29380;SDS011;16364;52.490;13.326;2022-12-07T08:47:13;2.53;;;1.83;;
29380;SDS011;16364;52.490;13.326;2022-12-07T08:49:41;12.43;;;2.00;;
29380;SDS011;16364;52.490;13.326;2022-12-07T08:52:08;4.47;;;2.40;;
29380;SDS011;16364;52.490;13.326;2022-12-07T08:54:34;1.83;;;1.73;;
29380;SDS011;16364;52.490;13.326;2022-12-07T08:57:00;2.40;;;2.20;;
29380;SDS011;16364;52.490;13.326;2022-12-07T08:59:25;2.60;;;2.40;;
29380;SDS011;16364;52.490;13.326;2022-12-07T09:01:51;2.43;;;1.80;;
29380;SDS011;16364;52.490;13.326;2022-12-07T09:04:16;4.10;;;2.63;;
29380;SDS011;16364;52.490;13.326;2022-12-07T09:06:41;2.30;;;1.80;;
29380;SDS011;16364;52.490;13.326;2022-12-07T09:09:06;3.20;;;1.80;;
29380;SDS011;16364;52.490;13.326;2022-12-07T09:11:32;1.93;;;1.73;;
29380;SDS011;16364;52.490;13.326;2022-12-07T09:13:57;2.10;;;1.90;;
29380;SDS011;16364;52.490;13.326;2022-12-07T09:16:23;3.87;;;3.00;;
29380;SDS011;16364;52.490;13.326;2022-12-07T09:18:48;4.60;;;2.27;;
29380;SDS011;16364;52.490;13.326;2022-12-07T09:21:13;2.50;;;2.30;;
29380;SDS011;16364;52.490;13.326;2022-12-07T09:23:38;3.53;;;2.07;;
29380;SDS011;16364;52.490;13.326;2022-12-07T09:26:04;3.80;;;2.57;;
29380;SDS011;16364;52.490;13.326;2022-12-07T09:28:30;4.30;;;2.30;;
29380;SDS011;16364;52.490;13.326;2022-12-07T09:30:55;2.57;;;2.37;;
29380;SDS011;16364;52.490;13.326;2022-12-07T09:33:21;2.23;;;1.97;;
29380;SDS011;16364;52.490;13.326;2022-12-07T09:35:46;2.13;;;1.90;;
29380;SDS011;16364;52.490;13.326;2022-12-07T09:38:12;3.13;;;2.37;;
29380;SDS011;16364;52.490;13.326;2022-12-07T09:40:38;2.77;;;2.27;;
29380;SDS011;16364;52.490;13.326;2022-12-07T09:43:03;5.43;;;2.20;;
29380;SDS011;16364;52.490;13.326;2022-12-07T09:45:33;3.07;;;1.80;;
29380;SDS011;16364;52.490;13.326;2022-12-07T09:47:59;2.40;;;1.90;;
29380;SDS011;16364;52.490;13.326;2022-12-07T09:50:25;4.70;;;2.10;;
29380;SDS011;16364;52.490;13.326;2022-12-07T09:52:51;2.50;;;2.30;;
29380;SDS011;16364;52.490;13.326;2022-12-07T09:55:24;1.93;;;1.73;;
29380;SDS011;16364;52.490;13.326;2022-12-07T09:57:50;2.50;;;2.30;;
29380;SDS011;16364;52.490;13.326;2022-12-07T10:00:17;2.50;;;2.30;;
29380;SDS011;16364;52.490;13.326;2022-12-07T10:02:44;2.63;;;2.23;;
29380;SDS011;16364;52.490;13.326;2022-12-07T10:05:16;2.53;;;1.70;;
29380;SDS011;16364;52.490;13.326;2022-12-07T10:07:42;5.80;;;2.20;;
29380;SDS011;16364;52.490;13.326;2022-12-07T10:10:15;2.73;;;2.20;;
29380;SDS011;16364;52.490;13.326;2022-12-07T10:12:53;2.17;;;2.07;;
29380;SDS011;16364;52.490;13.326;2022-12-07T10:15:19;4.03;;;2.67;;
29380;SDS011;16364;52.490;13.326;2022-12-07T10:17:48;2.67;;;2.10;;
29380;SDS011;16364;52.490;13.326;2022-12-07T10:22:44;5.33;;;2.37;;
29380;SDS011;16364;52.490;13.326;2022-12-07T10:25:19;2.57;;;2.37;;
29380;SDS011;16364;52.490;13.326;2022-12-07T10:27:56;2.53;;;2.20;;
29380;SDS011;16364;52.490;13.326;2022-12-07T10:30:24;3.03;;;2.23;;
29380;SDS011;16364;52.490;13.326;2022-12-07T10:32:49;3.57;;;2.10;;
29380;SDS011;16364;52.490;13.326;2022-12-07T10:35:25;2.47;;;1.87;;
29380;SDS011;16364;52.490;13.326;2022-12-07T10:37:51;4.07;;;1.87;;
29380;SDS011;16364;52.490;13.326;2022-12-07T10:40:33;6.80;;;2.13;;
29380;SDS011;16364;52.490;13.326;2022-12-07T10:45:30;3.10;;;2.90;;
29380;SDS011;16364;52.490;13.326;2022-12-07T11:00:50;2.70;;;2.50;;
29380;SDS011;16364;52.490;13.326;2022-12-07T11:03:29;2.47;;;2.27;;
29380;SDS011;16364;52.490;13.326;2022-12-07T11:06:03;4.07;;;2.57;;
29380;SDS011;16364;52.490;13.326;2022-12-07T11:11:14;7.27;;;3.00;;
29380;SDS011;16364;52.490;13.326;2022-12-07T11:13:48;3.20;;;3.00;;
29380;SDS011;16364;52.490;13.326;2022-12-07T11:16:24;2.50;;;2.30;;
29380;SDS011;16364;52.490;13.326;2022-12-07T11:21:34;3.00;;;2.70;;
29380;SDS011;16364;52.490;13.326;2022-12-07T11:24:15;3.53;;;2.37;;
29380;SDS011;16364;52.490;13.326;2022-12-07T11:26:52;2.83;;;2.50;;
29380;SDS011;16364;52.490;13.326;2022-12-07T11:29:40;3.20;;;2.90;;
29380;SDS011;16364;52.490;13.326;2022-12-07T11:37:23;3.13;;;2.70;;
29380;SDS011;16364;52.490;13.326;2022-12-07T11:39:51;4.73;;;3.03;;
29380;SDS011;16364;52.490;13.326;2022-12-07T11:45:10;4.17;;;3.43;;
29380;SDS011;16364;52.490;13.326;2022-12-07T11:47:40;5.20;;;3.83;;
29380;SDS011;16364;52.490;13.326;2022-12-07T11:52:45;7.27;;;3.50;;
29380;SDS011;16364;52.490;13.326;2022-12-07T11:55:19;3.33;;;2.53;;
29380;SDS011;16364;52.490;13.326;2022-12-07T11:57:49;3.73;;;2.67;;
29380;SDS011;16364;52.490;13.326;2022-12-07T12:00:16;6.53;;;2.80;;
29380;SDS011;16364;52.490;13.326;2022-12-07T12:02:49;4.20;;;3.47;;
29380;SDS011;16364;52.490;13.326;2022-12-07T12:07:43;2.33;;;2.13;;
29380;SDS011;16364;52.490;13.326;2022-12-07T12:10:21;3.10;;;2.80;;
29380;SDS011;16364;52.490;13.326;2022-12-07T12:20:31;3.00;;;2.57;;
29380;SDS011;16364;52.490;13.326;2022-12-07T12:28:54;9.97;;;2.70;;
29380;SDS011;16364;52.490;13.326;2022-12-07T12:31:47;7.73;;;2.30;;
29380;SDS011;16364;52.490;13.326;2022-12-07T12:33:50;4.20;;;2.20;;
29380;SDS011;16364;52.490;13.326;2022-12-07T12:38:50;3.80;;;2.40;;
29380;SDS011;16364;52.490;13.326;2022-12-07T12:44:00;4.53;;;2.00;;
29380;SDS011;16364;52.490;13.326;2022-12-07T12:48:54;2.83;;;2.07;;
29380;SDS011;16364;52.490;13.326;2022-12-07T12:51:39;5.33;;;2.20;;
29380;SDS011;16364;52.490;13.326;2022-12-07T12:54:05;3.30;;;1.90;;
29380;SDS011;16364;52.490;13.326;2022-12-07T12:56:47;3.17;;;2.87;;
29380;SDS011;16364;52.490;13.326;2022-12-07T12:59:18;9.27;;;2.13;;
29380;SDS011;16364;52.490;13.326;2022-12-07T13:01:46;4.40;;;2.30;;
29380;SDS011;16364;52.490;13.326;2022-12-07T13:04:21;3.97;;;2.17;;
29380;SDS011;16364;52.490;13.326;2022-12-07T13:06:48;2.93;;;2.17;;
29380;SDS011;16364;52.490;13.326;2022-12-07T13:09:17;4.33;;;2.00;;
29380;SDS011;16364;52.490;13.326;2022-12-07T13:11:44;3.57;;;2.40;;
29380;SDS011;16364;52.490;13.326;2022-12-07T13:16:54;3.13;;;2.10;;
29380;SDS011;16364;52.490;13.326;2022-12-07T13:19:31;2.77;;;1.80;;
29380;SDS011;16364;52.490;13.326;2022-12-07T13:24:58;2.93;;;2.00;;
29380;SDS011;16364;52.490;13.326;2022-12-07T13:27:25;6.80;;;2.97;;
29380;SDS011;16364;52.490;13.326;2022-12-07T13:29:51;3.93;;;2.10;;
29380;SDS011;16364;52.490;13.326;2022-12-07T13:32:22;5.37;;;2.27;;
29380;SDS011;16364;52.490;13.326;2022-12-07T13:34:48;6.40;;;4.07;;
29380;SDS011;16364;52.490;13.326;2022-12-07T13:37:20;7.30;;;1.80;;
29380;SDS011;16364;52.490;13.326;2022-12-07T13:39:48;2.30;;;1.70;;
29380;SDS011;16364;52.490;13.326;2022-12-07T13:47:53;2.77;;;1.80;;
29380;SDS011;16364;52.490;13.326;2022-12-07T13:50:29;2.67;;;1.73;;
29380;SDS011;16364;52.490;13.326;2022-12-07T13:52:55;8.70;;;1.50;;
29380;SDS011;16364;52.490;13.326;2022-12-07T13:55:21;6.83;;;2.07;;
29380;SDS011;16364;52.490;13.326;2022-12-07T13:57:47;2.97;;;2.00;;
29380;SDS011;16364;52.490;13.326;2022-12-07T14:00:15;2.30;;;1.80;;
29380;SDS011;16364;52.490;13.326;2022-12-07T14:02:57;3.83;;;1.80;;
29380;SDS011;16364;52.490;13.326;2022-12-07T14:05:25;3.00;;;1.90;;
29380;SDS011;16364;52.490;13.326;2022-12-07T14:10:30;2.20;;;1.30;;
29380;SDS011;16364;52.490;13.326;2022-12-07T14:12:58;2.47;;;1.70;;
29380;SDS011;16364;52.490;13.326;2022-12-07T14:15:25;4.20;;;1.63;;
29380;SDS011;16364;52.490;13.326;2022-12-07T14:17:52;6.67;;;2.20;;
29380;SDS011;16364;52.490;13.326;2022-12-07T14:20:37;5.00;;;1.70;;
29380;SDS011;16364;52.490;13.326;2022-12-07T14:23:03;3.10;;;1.40;;
29380;SDS011;16364;52.490;13.326;2022-12-07T14:25:44;4.13;;;1.77;;
29380;SDS011;16364;52.490;13.326;2022-12-07T14:28:09;6.50;;;2.03;;
29380;SDS011;16364;52.490;13.326;2022-12-07T14:30:49;9.27;;;1.83;;
29380;SDS011;16364;52.490;13.326;2022-12-07T14:33:14;3.83;;;1.57;;
29380;SDS011;16364;52.490;13.326;2022-12-07T14:35:40;3.30;;;1.73;;
29380;SDS011;16364;52.490;13.326;2022-12-07T14:38:05;7.83;;;1.87;;
29380;SDS011;16364;52.490;13.326;2022-12-07T14:40:31;4.47;;;2.20;;
29380;SDS011;16364;52.490;13.326;2022-12-07T14:42:57;2.00;;;1.53;;
29380;SDS011;16364;52.490;13.326;2022-12-07T14:45:24;3.40;;;1.60;;
29380;SDS011;16364;52.490;13.326;2022-12-07T14:47:49;1.70;;;1.60;;
29380;SDS011;16364;52.490;13.326;2022-12-07T14:50:16;7.20;;;2.27;;
29380;SDS011;16364;52.490;13.326;2022-12-07T14:52:43;5.03;;;1.80;;
29380;SDS011;16364;52.490;13.326;2022-12-07T14:55:20;4.37;;;2.80;;
29380;SDS011;16364;52.490;13.326;2022-12-07T14:57:46;2.90;;;1.83;;
29380;SDS011;16364;52.490;13.326;2022-12-07T15:00:17;3.17;;;1.60;;
29380;SDS011;16364;52.490;13.326;2022-12-07T15:02:46;10.63;;;2.47;;
29380;SDS011;16364;52.490;13.326;2022-12-07T15:05:12;6.50;;;1.63;;
29380;SDS011;16364;52.490;13.326;2022-12-07T15:07:38;2.70;;;1.77;;
29380;SDS011;16364;52.490;13.326;2022-12-07T15:10:03;4.70;;;1.60;;
29380;SDS011;16364;52.490;13.326;2022-12-07T15:12:29;4.10;;;1.60;;
29380;SDS011;16364;52.490;13.326;2022-12-07T15:14:54;5.13;;;1.67;;
29380;SDS011;16364;52.490;13.326;2022-12-07T15:17:20;5.23;;;1.53;;
29380;SDS011;16364;52.490;13.326;2022-12-07T15:19:45;1.93;;;1.80;;
29380;SDS011;16364;52.490;13.326;2022-12-07T15:22:10;4.10;;;1.63;;
29380;SDS011;16364;52.490;13.326;2022-12-07T15:24:36;1.90;;;1.80;;
29380;SDS011;16364;52.490;13.326;2022-12-07T15:27:01;8.03;;;2.27;;
29380;SDS011;16364;52.490;13.326;2022-12-07T15:29:26;3.53;;;1.80;;
29380;SDS011;16364;52.490;13.326;2022-12-07T15:31:52;3.50;;;2.10;;
29380;SDS011;16364;52.490;13.326;2022-12-07T15:34:17;6.27;;;1.93;;
29380;SDS011;16364;52.490;13.326;2022-12-07T15:36:45;4.00;;;1.83;;
29380;SDS011;16364;52.490;13.326;2022-12-07T15:39:10;2.97;;;1.80;;
29380;SDS011;16364;52.490;13.326;2022-12-07T15:41:36;10.53;;;2.53;;
29380;SDS011;16364;52.490;13.326;2022-12-07T15:44:02;3.20;;;2.20;;
29380;SDS011;16364;52.490;13.326;2022-12-07T15:46:45;4.43;;;2.00;;
29380;SDS011;16364;52.490;13.326;2022-12-07T15:49:12;4.83;;;1.97;;
29380;SDS011;16364;52.490;13.326;2022-12-07T15:51:38;4.23;;;1.97;;
29380;SDS011;16364;52.490;13.326;2022-12-07T15:54:03;3.77;;;2.13;;
29380;SDS011;16364;52.490;13.326;2022-12-07T15:56:28;4.73;;;2.00;;
29380;SDS011;16364;52.490;13.326;2022-12-07T15:58:55;2.97;;;1.80;;
29380;SDS011;16364;52.490;13.326;2022-12-07T16:01:20;3.73;;;2.00;;
29380;SDS011;16364;52.490;13.326;2022-12-07T16:03:46;2.60;;;1.90;;
29380;SDS011;16364;52.490;13.326;2022-12-07T16:06:11;5.40;;;2.20;;
29380;SDS011;16364;52.490;13.326;2022-12-07T16:08:40;4.80;;;1.90;;